DURO2: Washita River Durwood, OK

Data processed at Wed May 22 2019 23:30


All information presented herein is the property of the government of the United States of America and may be revised or deleted at any time without prior notice.
Dissemination of this information without the expressed written consent of the Public Affairs Office, Tulsa District U.S. Army Corps of Engineers is strictly prohibited.
These data are gathered electronically and, as presented, have not undergone any form of quality control. These data are not guaranteed to be valid or correct.
Go to home page.
Go to station list.
Go to home page.

Upstream stations:

Downstream station:
Previous Day
Next Day
Current Day
    
SHEF ID:       DURO2     Washita River near Dickson, OK
STATION TYPE:  
Regulating: Stage =    27.00, Flow =    37677

               PRECIP PRECIP(A)     STAGE  RIV-FLOW  BAT-LOAD
                   in        in        ft       cfs      volt
              Ccp-Rev   Ccp-Rev   Ccp-Rev   Ccp-Rev   Ccp-Rev
(US/Central)
05/22 00:00      0.00      ----     16.96     12907     12.49
05/22 01:00      0.00      ----     17.17     13342     12.49
05/22 02:00      0.00      ----     17.32     13657     12.49
05/22 03:00      0.00      ----     17.41     13847     12.41
05/22 04:00      0.00      ----     17.49     14017     12.41
05/22 05:00      0.00      ----     17.54     14124     12.41
05/22 06:00      0.00      ----     17.58     14209     12.41
05/22 07:00      0.00      ----     17.56     14166     12.41
05/22 08:00      0.00      ----     17.53     14102     12.81
05/22 09:00      0.00      ----     17.53     14102     12.81
05/22 10:00      0.00      ----     17.47     13974     12.81
05/22 11:00      0.00      ----     17.45     13932     12.73
05/22 12:00      0.00      ----     17.43     13889     12.73
05/22 13:00      0.00      ----     17.39     13805     12.73
05/22 14:00      0.00      ----     17.38     13783     12.73
05/22 15:00      0.00      ----     17.38     13783     12.65
05/22 16:00      0.00      ----     17.35     13720     12.65
05/22 17:00      0.00      ----     17.37     13762     12.65
05/22 18:00      0.00      ----     17.40     13826     12.65
05/22 19:00      0.00      ----     17.44     13911     12.65
05/22 20:00      0.00      ----     17.45     13932     12.57
05/22 21:00      0.00      ----     17.46     13953     12.57
05/22 22:00      0.00      ----     17.45     13932     12.57
05/22 23:00      ----      ----      ----      ----      ----